createdAt,value
2019-03-26T00:00:27.809Z,4.30
2019-03-26T00:02:56.800Z,3.90
2019-03-26T00:05:25.120Z,4.17
2019-03-26T00:07:53.404Z,4.00
2019-03-26T00:10:21.731Z,4.43
2019-03-26T00:12:49.957Z,4.50
2019-03-26T00:15:18.285Z,3.97
2019-03-26T00:17:46.576Z,5.07
2019-03-26T00:20:14.868Z,4.80
2019-03-26T00:22:43.191Z,4.43
2019-03-26T00:25:11.475Z,3.90
2019-03-26T00:27:39.802Z,4.90
2019-03-26T00:30:08.193Z,4.83
2019-03-26T00:32:36.448Z,5.27
2019-03-26T00:35:04.880Z,4.37
2019-03-26T00:37:33.091Z,4.27
2019-03-26T00:40:01.316Z,4.70
2019-03-26T00:42:29.572Z,5.33
2019-03-26T00:44:57.788Z,4.93
2019-03-26T00:47:26.018Z,4.53
2019-03-26T00:49:54.268Z,4.70
2019-03-26T00:52:22.488Z,5.07
2019-03-26T00:54:50.811Z,4.57
2019-03-26T00:57:19.111Z,4.80
2019-03-26T00:59:47.365Z,4.30
2019-03-26T01:02:15.588Z,4.43
2019-03-26T01:04:43.927Z,4.50
2019-03-26T01:07:12.140Z,4.90
2019-03-26T01:09:40.388Z,4.30
2019-03-26T01:12:08.685Z,4.73
2019-03-26T01:14:36.978Z,4.20
2019-03-26T01:17:05.301Z,4.33
2019-03-26T01:19:33.531Z,5.27
2019-03-26T01:22:01.773Z,5.43
2019-03-26T01:24:30.000Z,4.97
2019-03-26T01:26:58.321Z,5.97
2019-03-26T01:29:26.624Z,5.43
2019-03-26T01:31:54.936Z,5.17
2019-03-26T01:34:23.320Z,5.63
2019-03-26T01:36:51.572Z,5.10
2019-03-26T01:39:19.799Z,5.33
2019-03-26T01:41:48.128Z,5.50
2019-03-26T01:44:16.352Z,4.63
2019-03-26T01:46:44.595Z,4.93
2019-03-26T01:49:12.830Z,4.53
2019-03-26T01:51:41.047Z,5.20
2019-03-26T01:54:09.296Z,4.90
2019-03-26T01:56:37.583Z,5.40
2019-03-26T01:59:05.907Z,5.30
2019-03-26T02:01:34.195Z,5.20
2019-03-26T02:04:02.530Z,5.57
2019-03-26T02:06:30.745Z,5.57
2019-03-26T02:08:59.073Z,5.20
2019-03-26T02:11:27.293Z,5.53
2019-03-26T02:13:55.541Z,4.83
2019-03-26T02:16:23.760Z,5.43
2019-03-26T02:18:52.020Z,5.40
2019-03-26T02:21:20.409Z,5.23
2019-03-26T02:23:48.661Z,5.27
2019-03-26T02:26:16.878Z,4.90
2019-03-26T02:28:45.133Z,6.20
2019-03-26T02:31:13.438Z,6.53
2019-03-26T02:33:41.640Z,6.67
2019-03-26T02:36:09.892Z,6.63
2019-03-26T02:38:38.116Z,6.80
2019-03-26T02:41:06.369Z,6.57
2019-03-26T02:43:34.593Z,7.27
2019-03-26T02:46:02.849Z,6.57
2019-03-26T02:48:31.144Z,7.27
2019-03-26T02:50:59.402Z,6.87
2019-03-26T02:53:27.626Z,7.30
2019-03-26T02:55:55.955Z,6.40
2019-03-26T02:58:24.246Z,7.60
2019-03-26T03:00:52.497Z,7.13
2019-03-26T03:03:20.713Z,6.37
2019-03-26T03:05:48.970Z,6.70
2019-03-26T03:08:17.201Z,7.17
2019-03-26T03:10:45.453Z,7.47
2019-03-26T03:13:13.678Z,7.07
2019-03-26T03:15:41.901Z,7.40
2019-03-26T03:18:10.226Z,7.47
2019-03-26T03:20:38.451Z,8.40
2019-03-26T03:23:06.769Z,7.67
2019-03-26T03:25:35.056Z,8.83
2019-03-26T03:28:03.320Z,9.00
2019-03-26T03:30:31.546Z,8.10
2019-03-26T03:32:59.794Z,8.87
2019-03-26T03:35:28.013Z,7.93
2019-03-26T03:37:56.273Z,8.53
2019-03-26T03:40:24.494Z,7.80
2019-03-26T03:42:52.854Z,8.87
2019-03-26T03:45:27.843Z,8.47
2019-03-26T03:47:56.562Z,9.20
2019-03-26T03:50:26.318Z,9.63
2019-03-26T03:52:56.084Z,9.40
2019-03-26T03:55:24.705Z,8.33
2019-03-26T03:57:54.469Z,10.10
2019-03-26T04:00:35.619Z,9.27
2019-03-26T04:03:04.622Z,9.93
2019-03-26T04:05:33.060Z,10.10
2019-03-26T04:08:01.358Z,10.03
2019-03-26T04:10:29.622Z,10.20
2019-03-26T04:12:57.935Z,9.67
2019-03-26T04:15:26.269Z,10.10
2019-03-26T04:18:01.023Z,11.40
2019-03-26T04:20:36.650Z,10.97
2019-03-26T04:23:04.947Z,9.97
2019-03-26T04:25:33.256Z,9.80
2019-03-26T04:28:01.477Z,9.97
2019-03-26T04:30:30.618Z,10.50
2019-03-26T04:32:58.899Z,11.13
2019-03-26T04:35:27.222Z,9.97
2019-03-26T04:37:55.453Z,10.37
2019-03-26T04:40:23.704Z,9.60
2019-03-26T04:42:51.931Z,9.77
2019-03-26T04:45:23.295Z,9.07
2019-03-26T04:47:51.508Z,9.53
2019-03-26T04:50:19.765Z,9.37
2019-03-26T04:52:48.048Z,8.60
2019-03-26T04:55:16.304Z,8.97
2019-03-26T04:57:44.528Z,8.57
2019-03-26T05:00:12.920Z,8.67
2019-03-26T05:02:52.732Z,9.37
2019-03-26T05:05:15.932Z,8.07
2019-03-26T05:07:44.252Z,8.57
2019-03-26T05:10:12.620Z,8.80
2019-03-26T05:12:40.804Z,8.13
2019-03-26T05:15:09.100Z,8.30
2019-03-26T05:17:37.355Z,8.10
2019-03-26T05:20:06.447Z,7.97
2019-03-26T05:22:35.149Z,7.90
2019-03-26T05:25:04.469Z,7.70
2019-03-26T05:27:44.879Z,7.50
2019-03-26T05:30:02.663Z,8.17
2019-03-26T05:32:30.884Z,7.57
2019-03-26T05:34:59.143Z,7.93
2019-03-26T05:37:27.369Z,7.43
2019-03-26T05:39:55.624Z,7.90
2019-03-26T05:42:23.843Z,7.43
2019-03-26T05:44:52.097Z,7.13
2019-03-26T05:47:20.385Z,6.97
2019-03-26T05:49:48.636Z,6.53
2019-03-26T05:52:16.852Z,6.63
2019-03-26T05:54:45.139Z,6.67
2019-03-26T05:57:13.391Z,6.37
2019-03-26T05:59:41.612Z,6.50
2019-03-26T06:02:15.258Z,6.13
2019-03-26T06:04:39.799Z,6.37
2019-03-26T06:07:08.048Z,6.00
2019-03-26T06:09:36.277Z,6.80
2019-03-26T06:12:04.528Z,6.10
2019-03-26T06:14:32.812Z,6.10
2019-03-26T06:17:01.064Z,5.90
2019-03-26T06:19:29.284Z,5.73
2019-03-26T06:21:57.612Z,5.50
2019-03-26T06:24:25.843Z,5.63
2019-03-26T06:26:54.109Z,5.43
2019-03-26T06:29:22.336Z,5.40
2019-03-26T06:31:50.600Z,5.20
2019-03-26T06:34:18.906Z,5.10
2019-03-26T06:36:47.124Z,5.70
2019-03-26T06:39:15.389Z,4.77
2019-03-26T06:41:43.612Z,5.00
2019-03-26T06:44:11.945Z,4.60
2019-03-26T06:46:40.168Z,5.30
2019-03-26T06:49:08.423Z,4.57
2019-03-26T06:51:36.643Z,4.87
2019-03-26T06:54:04.960Z,4.67
2019-03-26T06:56:33.191Z,4.87
2019-03-26T06:59:01.441Z,4.57
2019-03-26T07:01:29.837Z,4.40
2019-03-26T07:03:58.155Z,4.70
2019-03-26T07:06:26.376Z,4.37
2019-03-26T07:08:54.703Z,4.33
2019-03-26T07:11:22.925Z,4.37
2019-03-26T07:13:51.225Z,4.47
2019-03-26T07:16:19.472Z,4.60
2019-03-26T07:18:47.696Z,4.40
2019-03-26T07:21:16.024Z,4.17
2019-03-26T07:23:44.244Z,4.07
2019-03-26T07:26:12.560Z,4.40
2019-03-26T07:28:40.852Z,4.83
2019-03-26T07:31:09.072Z,4.10
2019-03-26T07:33:37.323Z,4.63
2019-03-26T07:36:05.552Z,5.10
2019-03-26T07:38:33.804Z,4.47
2019-03-26T07:41:02.032Z,3.90
2019-03-26T07:43:32.938Z,4.43
2019-03-26T07:46:01.240Z,4.40
2019-03-26T07:48:31.397Z,3.97
2019-03-26T07:50:59.361Z,4.17
2019-03-26T07:53:27.614Z,4.63
2019-03-26T07:55:55.905Z,4.47
2019-03-26T07:58:24.164Z,4.40
2019-03-26T08:00:52.384Z,4.17
2019-03-26T08:03:21.290Z,3.77
2019-03-26T08:05:49.829Z,3.87
2019-03-26T08:08:18.087Z,4.30
2019-03-26T08:10:46.403Z,3.90
2019-03-26T08:13:14.658Z,4.30
2019-03-26T08:15:42.932Z,4.97
2019-03-26T08:18:11.455Z,4.00
2019-03-26T08:20:39.881Z,3.77
2019-03-26T08:23:08.101Z,3.40
2019-03-26T08:25:36.439Z,3.40
2019-03-26T08:28:05.258Z,3.67
2019-03-26T08:30:33.920Z,3.10
2019-03-26T08:33:02.220Z,3.73
2019-03-26T08:35:30.545Z,3.50
2019-03-26T08:38:11.372Z,4.03
2019-03-26T08:40:29.629Z,3.70
2019-03-26T08:42:57.932Z,4.10
2019-03-26T08:45:26.248Z,3.80
2019-03-26T08:47:54.471Z,4.00
2019-03-26T08:50:22.729Z,3.87
2019-03-26T08:52:50.945Z,3.77
2019-03-26T08:55:19.199Z,3.13
2019-03-26T08:57:47.660Z,3.27
2019-03-26T09:00:16.146Z,2.53
2019-03-26T09:02:44.371Z,2.60
2019-03-26T09:05:12.860Z,2.57
2019-03-26T09:07:41.181Z,3.03
2019-03-26T09:10:10.273Z,3.00
2019-03-26T09:12:39.623Z,3.40
2019-03-26T09:15:14.248Z,3.20
2019-03-26T09:17:44.158Z,3.00
2019-03-26T09:20:12.379Z,2.83
2019-03-26T09:22:40.712Z,2.67
2019-03-26T09:25:09.105Z,2.67
2019-03-26T09:27:37.429Z,2.70
2019-03-26T09:30:07.208Z,2.93
2019-03-26T09:32:35.441Z,2.60
2019-03-26T09:35:04.833Z,2.50
2019-03-26T09:37:33.166Z,2.80
2019-03-26T09:40:01.388Z,3.00
2019-03-26T09:42:29.645Z,2.97
2019-03-26T09:44:57.872Z,3.10
2019-03-26T09:47:26.169Z,3.27
2019-03-26T09:49:54.541Z,3.70
2019-03-26T09:52:22.720Z,3.20
2019-03-26T09:54:50.981Z,2.70
2019-03-26T09:57:19.198Z,2.60
2019-03-26T09:59:47.445Z,3.30
2019-03-26T10:02:15.670Z,3.13
2019-03-26T10:04:43.926Z,3.33
2019-03-26T10:07:21.322Z,3.53
2019-03-26T10:09:42.129Z,3.90
2019-03-26T10:12:10.417Z,3.40
2019-03-26T10:14:38.641Z,3.20
2019-03-26T10:17:06.885Z,3.70
2019-03-26T10:19:35.108Z,3.70
2019-03-26T10:22:03.435Z,3.30
2019-03-26T10:24:31.659Z,2.77
2019-03-26T10:26:59.908Z,2.43
2019-03-26T10:29:30.562Z,2.43
2019-03-26T10:31:58.096Z,2.47
2019-03-26T10:34:26.387Z,2.77
2019-03-26T10:36:54.685Z,2.80
2019-03-26T10:39:22.938Z,2.63
2019-03-26T10:41:51.163Z,2.50
2019-03-26T10:44:19.416Z,2.77
2019-03-26T10:46:47.640Z,2.70
2019-03-26T10:49:15.896Z,3.10
2019-03-26T10:51:44.118Z,3.93
2019-03-26T10:54:12.372Z,3.80
2019-03-26T10:56:40.597Z,4.43
2019-03-26T10:59:08.857Z,3.80
2019-03-26T11:01:37.147Z,4.30
2019-03-26T11:04:07.711Z,4.90
2019-03-26T11:06:35.336Z,4.43
2019-03-26T11:09:18.275Z,4.57
2019-03-26T11:11:34.767Z,4.80
2019-03-26T11:14:02.988Z,4.30
2019-03-26T11:16:31.317Z,5.20
2019-03-26T11:18:59.528Z,4.20
2019-03-26T11:21:27.756Z,5.00
2019-03-26T11:23:56.008Z,4.57
2019-03-26T11:26:24.242Z,4.60
2019-03-26T11:28:52.488Z,5.57
2019-03-26T11:31:20.703Z,4.03
2019-03-26T11:33:48.963Z,4.27
2019-03-26T11:36:17.261Z,4.40
2019-03-26T11:38:45.592Z,4.00
2019-03-26T11:41:13.889Z,4.20
2019-03-26T11:43:42.220Z,5.70
2019-03-26T11:46:10.510Z,4.27
2019-03-26T11:48:38.767Z,4.80
2019-03-26T11:51:06.979Z,5.20
2019-03-26T11:53:35.213Z,4.90
2019-03-26T11:56:03.477Z,4.37
2019-03-26T11:58:31.777Z,4.37
2019-03-26T12:01:00.100Z,4.10
2019-03-26T12:03:29.217Z,4.07
2019-03-26T12:05:57.575Z,4.20
2019-03-26T12:08:25.861Z,3.57
2019-03-26T12:10:54.671Z,4.13
2019-03-26T12:13:23.073Z,4.27
2019-03-26T12:15:51.512Z,3.97
2019-03-26T12:18:20.051Z,4.33
2019-03-26T12:20:48.354Z,3.80
2019-03-26T12:23:16.649Z,4.43
2019-03-26T12:25:44.953Z,3.90
2019-03-26T12:28:13.203Z,4.57
2019-03-26T12:30:41.517Z,4.60
2019-03-26T12:33:09.917Z,4.20
2019-03-26T12:35:38.184Z,3.97
2019-03-26T12:38:07.977Z,3.83
2019-03-26T12:40:36.440Z,4.30
2019-03-26T12:43:04.786Z,3.50
2019-03-26T12:45:33.112Z,4.00
2019-03-26T12:48:01.540Z,4.17
2019-03-26T12:50:32.211Z,4.23
2019-03-26T12:52:59.693Z,4.33
2019-03-26T12:55:27.953Z,4.07
2019-03-26T12:57:56.254Z,3.87
2019-03-26T13:00:26.289Z,4.10
2019-03-26T13:02:54.448Z,4.20
2019-03-26T13:05:23.386Z,4.10
2019-03-26T13:07:51.572Z,4.13
2019-03-26T13:10:19.982Z,4.10
2019-03-26T13:12:48.193Z,4.87
2019-03-26T13:15:16.640Z,4.40
2019-03-26T13:17:44.942Z,4.57
2019-03-26T13:20:32.540Z,4.47
2019-03-26T13:23:00.838Z,4.67
2019-03-26T13:25:29.137Z,4.73
2019-03-26T13:27:57.456Z,4.23
2019-03-26T13:30:25.780Z,6.73
2019-03-26T13:32:54.034Z,4.70
2019-03-26T13:35:22.435Z,5.40
2019-03-26T13:37:50.834Z,4.70
2019-03-26T13:40:27.255Z,5.20
2019-03-26T13:42:49.176Z,4.83
2019-03-26T13:45:17.601Z,5.13
2019-03-26T13:47:46.483Z,5.57
2019-03-26T13:50:14.708Z,22.40
2019-03-26T13:52:43.206Z,6.00
2019-03-26T13:55:11.537Z,5.63
2019-03-26T13:57:39.804Z,6.60
2019-03-26T14:00:08.768Z,5.50
2019-03-26T14:02:38.090Z,5.80
2019-03-26T14:05:08.319Z,5.63
2019-03-26T14:07:38.781Z,5.70
2019-03-26T14:10:07.089Z,5.83
2019-03-26T14:12:35.609Z,5.43
2019-03-26T14:15:05.205Z,9.27
2019-03-26T14:17:33.401Z,5.63
2019-03-26T14:20:01.730Z,5.57
2019-03-26T14:22:29.975Z,4.73
2019-03-26T14:24:58.269Z,4.90
2019-03-26T14:27:26.497Z,5.27
2019-03-26T14:29:54.718Z,4.93
2019-03-26T14:32:23.055Z,4.53
2019-03-26T14:34:51.857Z,4.60
2019-03-26T14:37:20.413Z,4.90
2019-03-26T14:39:48.633Z,4.30
2019-03-26T14:42:16.898Z,4.10
2019-03-26T14:44:45.198Z,4.50
2019-03-26T14:47:13.457Z,4.47
2019-03-26T14:49:41.684Z,4.83
2019-03-26T14:52:09.937Z,4.93
2019-03-26T14:54:38.248Z,6.27
2019-03-26T14:57:06.549Z,22.13
2019-03-26T14:59:34.814Z,4.60
2019-03-26T15:02:03.116Z,4.60
2019-03-26T15:04:31.385Z,4.60
2019-03-26T15:06:59.605Z,4.47
2019-03-26T15:09:27.932Z,4.97
2019-03-26T15:11:56.175Z,5.67
2019-03-26T15:14:24.503Z,4.70
2019-03-26T15:16:52.727Z,7.87
2019-03-26T15:19:20.986Z,4.83
2019-03-26T15:21:49.291Z,5.13
2019-03-26T15:24:17.545Z,5.30
2019-03-26T15:26:45.777Z,9.70
2019-03-26T15:29:14.125Z,9.77
2019-03-26T15:31:42.449Z,9.03
2019-03-26T15:34:10.742Z,7.63
2019-03-26T15:36:38.966Z,8.53
2019-03-26T15:39:07.986Z,6.03
2019-03-26T15:41:36.344Z,4.20
2019-03-26T15:44:04.689Z,4.03
2019-03-26T15:46:36.220Z,7.43
2019-03-26T15:49:02.817Z,9.47
2019-03-26T15:51:31.068Z,6.83
2019-03-26T15:53:59.334Z,8.67
2019-03-26T15:56:27.583Z,6.70
2019-03-26T15:58:55.816Z,5.00
2019-03-26T16:01:24.583Z,4.10
2019-03-26T16:03:52.896Z,4.13
2019-03-26T16:06:21.238Z,4.17
2019-03-26T16:08:49.478Z,4.70
2019-03-26T16:11:17.799Z,6.60
2019-03-26T16:13:46.032Z,5.87
2019-03-26T16:16:14.297Z,5.73
2019-03-26T16:18:42.613Z,6.77
2019-03-26T16:21:10.870Z,6.17
2019-03-26T16:23:39.094Z,6.60
2019-03-26T16:26:07.357Z,5.67
2019-03-26T16:28:35.581Z,5.20
2019-03-26T16:31:03.908Z,5.93
2019-03-26T16:33:32.239Z,5.23
2019-03-26T16:36:00.540Z,5.10
2019-03-26T16:38:28.798Z,5.77
2019-03-26T16:41:00.316Z,5.30
2019-03-26T16:43:26.930Z,5.03
2019-03-26T16:45:55.230Z,4.77
2019-03-26T16:48:23.552Z,6.77
2019-03-26T16:50:51.993Z,4.90
2019-03-26T16:53:20.459Z,5.20
2019-03-26T16:55:48.761Z,5.20
2019-03-26T16:58:17.205Z,6.03
2019-03-26T17:00:46.124Z,7.40
2019-03-26T17:03:14.467Z,8.63
2019-03-26T17:05:42.798Z,9.40
2019-03-26T17:08:11.448Z,9.23
2019-03-26T17:10:48.569Z,10.90
2019-03-26T17:13:21.195Z,10.47
2019-03-26T17:15:53.915Z,10.23
2019-03-26T17:18:22.304Z,9.30
2019-03-26T17:20:51.207Z,10.53
2019-03-26T17:23:20.545Z,9.63
2019-03-26T17:25:48.795Z,9.87
2019-03-26T17:28:17.534Z,12.60
2019-03-26T17:30:46.219Z,11.33
2019-03-26T17:33:14.795Z,12.33
2019-03-26T17:35:43.024Z,12.73
2019-03-26T17:38:11.289Z,12.43
2019-03-26T17:40:42.307Z,13.60
2019-03-26T17:43:10.585Z,12.17
2019-03-26T17:45:38.885Z,10.97
2019-03-26T17:48:07.403Z,10.80
2019-03-26T17:50:35.716Z,12.57
2019-03-26T17:53:04.095Z,12.47
2019-03-26T17:55:32.317Z,11.90
2019-03-26T17:58:00.653Z,11.67
2019-03-26T18:00:36.331Z,11.30
2019-03-26T18:03:05.192Z,10.33
2019-03-26T18:05:33.798Z,11.27
2019-03-26T18:08:02.099Z,11.63
2019-03-26T18:10:30.401Z,11.20
2019-03-26T18:12:58.738Z,10.93
2019-03-26T18:15:27.034Z,9.93
2019-03-26T18:17:55.267Z,10.10
2019-03-26T18:20:32.438Z,9.97
2019-03-26T18:22:53.918Z,8.47
2019-03-26T18:25:22.244Z,8.13
2019-03-26T18:27:50.585Z,8.47
2019-03-26T18:30:18.878Z,8.00
2019-03-26T18:32:47.209Z,8.27
2019-03-26T18:35:15.442Z,8.87
2019-03-26T18:37:44.006Z,8.47
2019-03-26T18:40:12.441Z,7.97
2019-03-26T18:42:44.236Z,8.40
2019-03-26T18:45:10.719Z,8.20
2019-03-26T18:47:42.079Z,9.10
2019-03-26T18:50:10.403Z,10.07
2019-03-26T18:52:38.646Z,10.13
2019-03-26T18:55:07.091Z,10.43
2019-03-26T18:57:36.112Z,11.13
2019-03-26T19:00:07.892Z,10.40
2019-03-26T19:02:36.216Z,12.03
2019-03-26T19:05:06.650Z,10.93
2019-03-26T19:07:35.625Z,10.77
2019-03-26T19:10:05.420Z,11.03
2019-03-26T19:12:34.064Z,11.13
2019-03-26T19:15:03.366Z,11.47
2019-03-26T19:17:31.595Z,12.73
2019-03-26T19:20:03.208Z,12.40
2019-03-26T19:22:31.964Z,11.73
2019-03-26T19:25:00.390Z,11.13
2019-03-26T19:27:28.780Z,10.57
2019-03-26T19:29:57.043Z,11.40
2019-03-26T19:32:25.293Z,10.27
2019-03-26T19:34:53.728Z,10.30
2019-03-26T19:37:21.951Z,10.60
2019-03-26T19:39:50.357Z,10.63
2019-03-26T19:42:18.617Z,10.87
2019-03-26T19:44:47.160Z,10.27
2019-03-26T19:47:15.545Z,9.73
2019-03-26T19:49:43.934Z,10.33
2019-03-26T19:52:12.246Z,10.23
2019-03-26T19:54:40.557Z,9.30
2019-03-26T19:57:08.938Z,9.20
2019-03-26T19:59:37.347Z,9.00
2019-03-26T20:02:05.897Z,9.60
2019-03-26T20:04:34.291Z,9.07
2019-03-26T20:07:02.675Z,8.50
2019-03-26T20:09:31.990Z,8.60
2019-03-26T20:12:00.299Z,8.60
2019-03-26T20:14:28.529Z,10.23
2019-03-26T20:16:56.875Z,9.23
2019-03-26T20:19:25.191Z,8.17
2019-03-26T20:21:53.420Z,8.87
2019-03-26T20:24:21.739Z,7.93
2019-03-26T20:26:49.965Z,8.40
2019-03-26T20:29:18.647Z,8.20
2019-03-26T20:31:46.869Z,8.43
2019-03-26T20:34:15.128Z,7.90
2019-03-26T20:36:43.415Z,8.37
2019-03-26T20:39:11.920Z,7.60
2019-03-26T20:41:40.113Z,8.03
2019-03-26T20:44:08.677Z,8.00
2019-03-26T20:46:37.062Z,7.87
2019-03-26T20:49:05.420Z,8.20
2019-03-26T20:51:34.647Z,8.43
2019-03-26T20:54:02.913Z,7.40
2019-03-26T20:56:31.528Z,8.63
2019-03-26T20:59:00.120Z,8.30
2019-03-26T21:01:28.763Z,8.60
2019-03-26T21:03:57.015Z,8.73
2019-03-26T21:06:25.684Z,8.27
2019-03-26T21:08:54.578Z,8.57
2019-03-26T21:11:22.836Z,9.10
2019-03-26T21:13:51.287Z,8.73
2019-03-26T21:16:21.047Z,9.83
2019-03-26T21:18:49.396Z,9.27
2019-03-26T21:21:17.787Z,8.80
2019-03-26T21:23:46.110Z,9.63
2019-03-26T21:26:14.446Z,10.07
2019-03-26T21:28:42.762Z,10.53
2019-03-26T21:31:11.025Z,10.70
2019-03-26T21:33:39.265Z,11.20
2019-03-26T21:36:07.515Z,11.13
2019-03-26T21:38:35.851Z,12.37
2019-03-26T21:41:04.248Z,10.60
2019-03-26T21:43:33.094Z,11.47
2019-03-26T21:46:01.327Z,11.37
2019-03-26T21:48:29.655Z,11.93
2019-03-26T21:50:58.086Z,10.83
2019-03-26T21:53:26.503Z,11.27
2019-03-26T21:56:05.655Z,11.67
2019-03-26T21:58:25.023Z,11.03
2019-03-26T22:00:53.384Z,10.73
2019-03-26T22:03:21.605Z,11.70
2019-03-26T22:05:50.021Z,11.37
2019-03-26T22:08:18.415Z,11.67
2019-03-26T22:10:47.413Z,11.90
2019-03-26T22:13:16.283Z,12.00
2019-03-26T22:15:44.709Z,12.00
2019-03-26T22:18:13.402Z,11.63
2019-03-26T22:20:42.369Z,12.03
2019-03-26T22:23:10.896Z,11.93
2019-03-26T22:25:39.286Z,11.57
2019-03-26T22:28:07.667Z,11.33
2019-03-26T22:30:36.007Z,12.07
2019-03-26T22:33:04.680Z,12.13
2019-03-26T22:35:33.072Z,11.60
2019-03-26T22:38:01.337Z,12.47
2019-03-26T22:40:29.736Z,12.93
2019-03-26T22:42:58.006Z,12.57
2019-03-26T22:45:26.401Z,12.77
2019-03-26T22:47:54.648Z,11.83
2019-03-26T22:50:22.877Z,12.17
2019-03-26T22:52:51.687Z,13.23
2019-03-26T22:55:19.964Z,13.30
2019-03-26T22:57:49.203Z,12.40
2019-03-26T23:00:18.298Z,12.87
2019-03-26T23:02:46.600Z,13.07
2019-03-26T23:05:15.438Z,12.27
2019-03-26T23:07:43.744Z,12.80
2019-03-26T23:10:13.073Z,12.47
2019-03-26T23:12:42.076Z,12.07
2019-03-26T23:15:14.695Z,13.43
2019-03-26T23:17:42.930Z,12.67
2019-03-26T23:20:11.227Z,12.40
2019-03-26T23:22:39.578Z,13.00
2019-03-26T23:25:07.876Z,13.40
2019-03-26T23:27:36.148Z,12.77
2019-03-26T23:30:07.721Z,12.97
2019-03-26T23:32:36.065Z,12.90
2019-03-26T23:35:05.233Z,13.77
2019-03-26T23:37:33.459Z,13.30
2019-03-26T23:40:01.721Z,13.13
2019-03-26T23:42:29.948Z,13.37
2019-03-26T23:44:58.845Z,13.60
2019-03-26T23:47:27.523Z,13.73
2019-03-26T23:49:55.792Z,14.73
2019-03-26T23:52:24.024Z,14.80
2019-03-26T23:54:56.018Z,14.37
2019-03-26T23:57:24.248Z,14.83
2019-03-26T23:59:52.509Z,14.07
